sensor_id;sensor_type;location;lat;lon;timestamp;P1;durP1;ratioP1;P2;durP2;ratioP2
4074;SDS011;2052;53.522;9.806;2022-12-10T00:01:56;58.57;;;19.67;;
4074;SDS011;2052;53.522;9.806;2022-12-10T00:04:23;46.80;;;18.80;;
4074;SDS011;2052;53.522;9.806;2022-12-10T00:06:50;46.53;;;20.37;;
4074;SDS011;2052;53.522;9.806;2022-12-10T00:09:17;44.47;;;19.20;;
4074;SDS011;2052;53.522;9.806;2022-12-10T00:11:45;55.80;;;21.87;;
4074;SDS011;2052;53.522;9.806;2022-12-10T00:14:11;48.23;;;22.03;;
4074;SDS011;2052;53.522;9.806;2022-12-10T00:16:39;60.47;;;24.07;;
4074;SDS011;2052;53.522;9.806;2022-12-10T00:19:08;57.23;;;22.50;;
4074;SDS011;2052;53.522;9.806;2022-12-10T00:21:35;60.13;;;21.90;;
4074;SDS011;2052;53.522;9.806;2022-12-10T00:24:02;53.73;;;22.63;;
4074;SDS011;2052;53.522;9.806;2022-12-10T00:26:30;51.57;;;20.27;;
4074;SDS011;2052;53.522;9.806;2022-12-10T00:28:59;64.43;;;22.53;;
4074;SDS011;2052;53.522;9.806;2022-12-10T00:31:27;68.43;;;20.77;;
4074;SDS011;2052;53.522;9.806;2022-12-10T00:33:55;58.13;;;22.27;;
4074;SDS011;2052;53.522;9.806;2022-12-10T00:36:24;80.83;;;22.40;;
4074;SDS011;2052;53.522;9.806;2022-12-10T00:38:52;73.83;;;22.70;;
4074;SDS011;2052;53.522;9.806;2022-12-10T00:41:19;61.40;;;22.40;;
4074;SDS011;2052;53.522;9.806;2022-12-10T00:43:46;73.00;;;22.80;;
4074;SDS011;2052;53.522;9.806;2022-12-10T00:46:14;68.03;;;23.50;;
4074;SDS011;2052;53.522;9.806;2022-12-10T00:48:41;66.70;;;25.53;;
4074;SDS011;2052;53.522;9.806;2022-12-10T00:51:09;71.63;;;22.30;;
4074;SDS011;2052;53.522;9.806;2022-12-10T00:53:39;60.47;;;21.00;;
4074;SDS011;2052;53.522;9.806;2022-12-10T00:56:07;78.37;;;24.73;;
4074;SDS011;2052;53.522;9.806;2022-12-10T00:58:34;72.10;;;23.23;;
4074;SDS011;2052;53.522;9.806;2022-12-10T01:01:09;73.10;;;24.00;;
4074;SDS011;2052;53.522;9.806;2022-12-10T01:03:37;58.00;;;20.43;;
4074;SDS011;2052;53.522;9.806;2022-12-10T01:06:08;58.20;;;20.80;;
4074;SDS011;2052;53.522;9.806;2022-12-10T01:08:35;78.83;;;26.10;;
4074;SDS011;2052;53.522;9.806;2022-12-10T01:11:03;74.10;;;22.67;;
4074;SDS011;2052;53.522;9.806;2022-12-10T01:13:30;60.27;;;20.40;;
4074;SDS011;2052;53.522;9.806;2022-12-10T01:15:59;94.67;;;23.10;;
4074;SDS011;2052;53.522;9.806;2022-12-10T01:18:26;72.30;;;22.50;;
4074;SDS011;2052;53.522;9.806;2022-12-10T01:20:53;68.53;;;21.33;;
4074;SDS011;2052;53.522;9.806;2022-12-10T01:23:19;74.20;;;24.30;;
4074;SDS011;2052;53.522;9.806;2022-12-10T01:25:47;55.03;;;22.50;;
4074;SDS011;2052;53.522;9.806;2022-12-10T01:28:15;75.70;;;24.67;;
4074;SDS011;2052;53.522;9.806;2022-12-10T01:30:42;77.07;;;23.30;;
4074;SDS011;2052;53.522;9.806;2022-12-10T01:33:09;61.23;;;20.40;;
4074;SDS011;2052;53.522;9.806;2022-12-10T01:35:36;64.37;;;22.27;;
4074;SDS011;2052;53.522;9.806;2022-12-10T01:38:02;58.40;;;22.20;;
4074;SDS011;2052;53.522;9.806;2022-12-10T01:40:29;62.50;;;22.57;;
4074;SDS011;2052;53.522;9.806;2022-12-10T01:42:56;61.70;;;22.93;;
4074;SDS011;2052;53.522;9.806;2022-12-10T01:45:23;70.57;;;22.93;;
4074;SDS011;2052;53.522;9.806;2022-12-10T01:47:50;60.70;;;20.10;;
4074;SDS011;2052;53.522;9.806;2022-12-10T01:50:17;51.90;;;19.37;;
4074;SDS011;2052;53.522;9.806;2022-12-10T01:52:43;65.50;;;21.40;;
4074;SDS011;2052;53.522;9.806;2022-12-10T01:58:03;55.17;;;19.80;;
4074;SDS011;2052;53.522;9.806;2022-12-10T02:00:32;59.63;;;20.83;;
4074;SDS011;2052;53.522;9.806;2022-12-10T02:03:02;61.60;;;19.90;;
4074;SDS011;2052;53.522;9.806;2022-12-10T02:05:35;55.77;;;19.87;;
4074;SDS011;2052;53.522;9.806;2022-12-10T02:08:06;48.20;;;18.20;;
4074;SDS011;2052;53.522;9.806;2022-12-10T02:10:42;60.60;;;19.77;;
4074;SDS011;2052;53.522;9.806;2022-12-10T02:13:15;51.03;;;19.27;;
4074;SDS011;2052;53.522;9.806;2022-12-10T02:15:47;56.47;;;20.20;;
4074;SDS011;2052;53.522;9.806;2022-12-10T02:18:17;55.03;;;20.63;;
4074;SDS011;2052;53.522;9.806;2022-12-10T02:20:47;54.40;;;19.57;;
4074;SDS011;2052;53.522;9.806;2022-12-10T02:23:16;51.70;;;18.37;;
4074;SDS011;2052;53.522;9.806;2022-12-10T02:25:46;49.63;;;17.10;;
4074;SDS011;2052;53.522;9.806;2022-12-10T02:28:17;57.13;;;19.40;;
4074;SDS011;2052;53.522;9.806;2022-12-10T02:30:50;44.63;;;17.00;;
4074;SDS011;2052;53.522;9.806;2022-12-10T02:33:17;59.00;;;19.30;;
4074;SDS011;2052;53.522;9.806;2022-12-10T02:35:45;48.10;;;17.10;;
4074;SDS011;2052;53.522;9.806;2022-12-10T02:38:14;54.23;;;18.40;;
4074;SDS011;2052;53.522;9.806;2022-12-10T02:40:44;50.17;;;17.97;;
4074;SDS011;2052;53.522;9.806;2022-12-10T02:43:13;45.53;;;16.40;;
4074;SDS011;2052;53.522;9.806;2022-12-10T02:45:40;39.40;;;16.30;;
4074;SDS011;2052;53.522;9.806;2022-12-10T02:48:09;48.93;;;17.37;;
4074;SDS011;2052;53.522;9.806;2022-12-10T02:50:36;50.30;;;18.40;;
4074;SDS011;2052;53.522;9.806;2022-12-10T02:53:03;46.67;;;18.17;;
4074;SDS011;2052;53.522;9.806;2022-12-10T02:55:29;41.97;;;18.40;;
4074;SDS011;2052;53.522;9.806;2022-12-10T02:58:07;48.07;;;16.17;;
4074;SDS011;2052;53.522;9.806;2022-12-10T03:00:40;40.33;;;16.83;;
4074;SDS011;2052;53.522;9.806;2022-12-10T03:03:19;45.87;;;16.20;;
4074;SDS011;2052;53.522;9.806;2022-12-10T03:05:52;44.13;;;15.73;;
4074;SDS011;2052;53.522;9.806;2022-12-10T03:08:22;46.10;;;16.60;;
4074;SDS011;2052;53.522;9.806;2022-12-10T03:10:52;42.13;;;16.70;;
4074;SDS011;2052;53.522;9.806;2022-12-10T03:13:23;46.27;;;17.87;;
4074;SDS011;2052;53.522;9.806;2022-12-10T03:15:55;45.47;;;15.73;;
4074;SDS011;2052;53.522;9.806;2022-12-10T03:18:24;38.27;;;16.17;;
4074;SDS011;2052;53.522;9.806;2022-12-10T03:20:51;45.37;;;16.40;;
4074;SDS011;2052;53.522;9.806;2022-12-10T03:23:19;45.47;;;16.70;;
4074;SDS011;2052;53.522;9.806;2022-12-10T03:25:46;52.63;;;19.33;;
4074;SDS011;2052;53.522;9.806;2022-12-10T03:28:14;44.23;;;17.07;;
4074;SDS011;2052;53.522;9.806;2022-12-10T03:30:43;39.73;;;16.73;;
4074;SDS011;2052;53.522;9.806;2022-12-10T03:33:10;33.00;;;14.00;;
4074;SDS011;2052;53.522;9.806;2022-12-10T03:35:39;35.10;;;14.77;;
4074;SDS011;2052;53.522;9.806;2022-12-10T03:38:05;46.13;;;16.27;;
4074;SDS011;2052;53.522;9.806;2022-12-10T03:40:32;35.37;;;15.70;;
4074;SDS011;2052;53.522;9.806;2022-12-10T03:42:59;39.03;;;17.00;;
4074;SDS011;2052;53.522;9.806;2022-12-10T03:45:25;43.27;;;15.87;;
4074;SDS011;2052;53.522;9.806;2022-12-10T03:47:53;36.43;;;15.10;;
4074;SDS011;2052;53.522;9.806;2022-12-10T03:50:19;39.90;;;17.60;;
4074;SDS011;2052;53.522;9.806;2022-12-10T03:52:47;38.93;;;15.10;;
4074;SDS011;2052;53.522;9.806;2022-12-10T03:55:14;38.53;;;15.07;;
4074;SDS011;2052;53.522;9.806;2022-12-10T03:57:41;45.80;;;16.50;;
4074;SDS011;2052;53.522;9.806;2022-12-10T04:00:08;42.37;;;15.60;;
4074;SDS011;2052;53.522;9.806;2022-12-10T04:02:35;39.33;;;16.00;;
4074;SDS011;2052;53.522;9.806;2022-12-10T04:05:02;48.47;;;16.43;;
4074;SDS011;2052;53.522;9.806;2022-12-10T04:07:30;39.60;;;15.37;;
4074;SDS011;2052;53.522;9.806;2022-12-10T04:09:58;41.23;;;16.87;;
4074;SDS011;2052;53.522;9.806;2022-12-10T04:12:24;32.13;;;12.37;;
4074;SDS011;2052;53.522;9.806;2022-12-10T04:14:51;28.30;;;11.93;;
4074;SDS011;2052;53.522;9.806;2022-12-10T04:17:35;36.43;;;14.57;;
4074;SDS011;2052;53.522;9.806;2022-12-10T04:20:02;35.47;;;15.40;;
4074;SDS011;2052;53.522;9.806;2022-12-10T04:22:29;35.67;;;15.90;;
4074;SDS011;2052;53.522;9.806;2022-12-10T04:25:15;33.77;;;13.80;;
4074;SDS011;2052;53.522;9.806;2022-12-10T04:27:59;36.07;;;14.60;;
4074;SDS011;2052;53.522;9.806;2022-12-10T04:30:26;36.93;;;15.50;;
4074;SDS011;2052;53.522;9.806;2022-12-10T04:32:52;36.53;;;14.93;;
4074;SDS011;2052;53.522;9.806;2022-12-10T04:35:19;36.37;;;16.53;;
4074;SDS011;2052;53.522;9.806;2022-12-10T04:37:45;37.57;;;14.33;;
4074;SDS011;2052;53.522;9.806;2022-12-10T04:40:12;38.50;;;15.90;;
4074;SDS011;2052;53.522;9.806;2022-12-10T04:42:40;32.63;;;14.40;;
4074;SDS011;2052;53.522;9.806;2022-12-10T04:45:06;27.10;;;14.53;;
4074;SDS011;2052;53.522;9.806;2022-12-10T04:47:33;34.17;;;14.10;;
4074;SDS011;2052;53.522;9.806;2022-12-10T04:50:00;31.23;;;13.90;;
4074;SDS011;2052;53.522;9.806;2022-12-10T04:52:27;33.70;;;14.93;;
4074;SDS011;2052;53.522;9.806;2022-12-10T04:54:53;30.87;;;14.60;;
4074;SDS011;2052;53.522;9.806;2022-12-10T04:57:20;31.93;;;14.20;;
4074;SDS011;2052;53.522;9.806;2022-12-10T04:59:47;34.40;;;14.63;;
4074;SDS011;2052;53.522;9.806;2022-12-10T05:02:14;31.77;;;15.60;;
4074;SDS011;2052;53.522;9.806;2022-12-10T05:04:41;38.47;;;15.80;;
4074;SDS011;2052;53.522;9.806;2022-12-10T05:07:07;34.00;;;14.57;;
4074;SDS011;2052;53.522;9.806;2022-12-10T05:09:34;35.70;;;15.17;;
4074;SDS011;2052;53.522;9.806;2022-12-10T05:12:00;26.70;;;14.13;;
4074;SDS011;2052;53.522;9.806;2022-12-10T05:14:27;31.13;;;14.67;;
4074;SDS011;2052;53.522;9.806;2022-12-10T05:16:55;35.00;;;16.33;;
4074;SDS011;2052;53.522;9.806;2022-12-10T05:19:21;30.77;;;15.53;;
4074;SDS011;2052;53.522;9.806;2022-12-10T05:21:48;32.43;;;14.43;;
4074;SDS011;2052;53.522;9.806;2022-12-10T05:24:33;30.53;;;14.47;;
4074;SDS011;2052;53.522;9.806;2022-12-10T05:27:00;29.73;;;13.57;;
4074;SDS011;2052;53.522;9.806;2022-12-10T05:29:26;27.60;;;13.27;;
4074;SDS011;2052;53.522;9.806;2022-12-10T05:31:54;25.33;;;13.00;;
4074;SDS011;2052;53.522;9.806;2022-12-10T05:34:21;27.57;;;12.60;;
4074;SDS011;2052;53.522;9.806;2022-12-10T05:36:48;28.47;;;12.23;;
4074;SDS011;2052;53.522;9.806;2022-12-10T05:39:15;36.70;;;14.27;;
4074;SDS011;2052;53.522;9.806;2022-12-10T05:41:41;28.97;;;14.50;;
4074;SDS011;2052;53.522;9.806;2022-12-10T05:44:09;24.30;;;12.37;;
4074;SDS011;2052;53.522;9.806;2022-12-10T05:46:36;27.57;;;12.27;;
4074;SDS011;2052;53.522;9.806;2022-12-10T05:49:04;30.70;;;13.90;;
4074;SDS011;2052;53.522;9.806;2022-12-10T05:51:32;29.93;;;12.67;;
4074;SDS011;2052;53.522;9.806;2022-12-10T05:54:00;28.43;;;13.63;;
4074;SDS011;2052;53.522;9.806;2022-12-10T05:56:28;30.40;;;12.87;;
4074;SDS011;2052;53.522;9.806;2022-12-10T05:58:56;25.37;;;12.80;;
4074;SDS011;2052;53.522;9.806;2022-12-10T06:01:25;28.97;;;12.83;;
4074;SDS011;2052;53.522;9.806;2022-12-10T06:03:53;27.23;;;12.93;;
4074;SDS011;2052;53.522;9.806;2022-12-10T06:06:23;29.97;;;12.97;;
4074;SDS011;2052;53.522;9.806;2022-12-10T06:08:51;25.17;;;12.30;;
4074;SDS011;2052;53.522;9.806;2022-12-10T06:11:18;25.63;;;13.30;;
4074;SDS011;2052;53.522;9.806;2022-12-10T06:13:44;22.80;;;11.70;;
4074;SDS011;2052;53.522;9.806;2022-12-10T06:16:12;25.17;;;10.87;;
4074;SDS011;2052;53.522;9.806;2022-12-10T06:18:40;26.67;;;12.33;;
4074;SDS011;2052;53.522;9.806;2022-12-10T06:21:07;28.07;;;11.60;;
4074;SDS011;2052;53.522;9.806;2022-12-10T06:23:36;18.77;;;10.80;;
4074;SDS011;2052;53.522;9.806;2022-12-10T06:26:04;20.63;;;10.73;;
4074;SDS011;2052;53.522;9.806;2022-12-10T06:28:31;19.63;;;10.40;;
4074;SDS011;2052;53.522;9.806;2022-12-10T06:30:57;22.80;;;11.47;;
4074;SDS011;2052;53.522;9.806;2022-12-10T06:33:24;21.93;;;11.63;;
4074;SDS011;2052;53.522;9.806;2022-12-10T06:35:51;25.83;;;11.30;;
4074;SDS011;2052;53.522;9.806;2022-12-10T06:38:17;25.03;;;11.53;;
4074;SDS011;2052;53.522;9.806;2022-12-10T06:40:45;23.43;;;11.47;;
4074;SDS011;2052;53.522;9.806;2022-12-10T06:43:12;27.47;;;12.73;;
4074;SDS011;2052;53.522;9.806;2022-12-10T06:45:38;27.87;;;11.63;;
4074;SDS011;2052;53.522;9.806;2022-12-10T06:48:05;23.00;;;10.60;;
4074;SDS011;2052;53.522;9.806;2022-12-10T06:50:32;27.50;;;12.97;;
4074;SDS011;2052;53.522;9.806;2022-12-10T06:52:58;22.43;;;11.70;;
4074;SDS011;2052;53.522;9.806;2022-12-10T06:55:25;23.07;;;10.97;;
4074;SDS011;2052;53.522;9.806;2022-12-10T06:57:53;24.20;;;11.07;;
4074;SDS011;2052;53.522;9.806;2022-12-10T07:00:20;23.50;;;12.87;;
4074;SDS011;2052;53.522;9.806;2022-12-10T07:02:47;24.90;;;11.70;;
4074;SDS011;2052;53.522;9.806;2022-12-10T07:05:14;20.50;;;10.70;;
4074;SDS011;2052;53.522;9.806;2022-12-10T07:07:41;25.77;;;11.63;;
4074;SDS011;2052;53.522;9.806;2022-12-10T07:10:08;25.83;;;12.10;;
4074;SDS011;2052;53.522;9.806;2022-12-10T07:12:35;27.73;;;12.30;;
4074;SDS011;2052;53.522;9.806;2022-12-10T07:15:03;28.00;;;12.40;;
4074;SDS011;2052;53.522;9.806;2022-12-10T07:17:31;18.07;;;10.50;;
4074;SDS011;2052;53.522;9.806;2022-12-10T07:19:58;20.70;;;11.97;;
4074;SDS011;2052;53.522;9.806;2022-12-10T07:22:24;25.50;;;12.13;;
4074;SDS011;2052;53.522;9.806;2022-12-10T07:24:51;25.10;;;12.00;;
4074;SDS011;2052;53.522;9.806;2022-12-10T07:27:17;29.23;;;13.70;;
4074;SDS011;2052;53.522;9.806;2022-12-10T07:29:44;23.83;;;11.10;;
4074;SDS011;2052;53.522;9.806;2022-12-10T07:32:12;38.90;;;17.83;;
4074;SDS011;2052;53.522;9.806;2022-12-10T07:34:39;35.47;;;16.17;;
4074;SDS011;2052;53.522;9.806;2022-12-10T07:37:05;24.60;;;11.97;;
4074;SDS011;2052;53.522;9.806;2022-12-10T07:39:33;32.30;;;11.27;;
4074;SDS011;2052;53.522;9.806;2022-12-10T07:41:59;28.27;;;13.30;;
4074;SDS011;2052;53.522;9.806;2022-12-10T07:44:26;20.13;;;11.80;;
4074;SDS011;2052;53.522;9.806;2022-12-10T07:46:53;21.83;;;11.90;;
4074;SDS011;2052;53.522;9.806;2022-12-10T07:49:21;19.63;;;10.77;;
4074;SDS011;2052;53.522;9.806;2022-12-10T07:51:48;21.47;;;11.07;;
4074;SDS011;2052;53.522;9.806;2022-12-10T07:54:16;24.43;;;12.33;;
4074;SDS011;2052;53.522;9.806;2022-12-10T07:56:43;22.50;;;10.10;;
4074;SDS011;2052;53.522;9.806;2022-12-10T07:59:10;21.20;;;10.90;;
4074;SDS011;2052;53.522;9.806;2022-12-10T08:01:36;21.97;;;10.77;;
4074;SDS011;2052;53.522;9.806;2022-12-10T08:04:03;21.10;;;10.53;;
4074;SDS011;2052;53.522;9.806;2022-12-10T08:06:31;22.30;;;10.63;;
4074;SDS011;2052;53.522;9.806;2022-12-10T08:08:58;18.33;;;9.00;;
4074;SDS011;2052;53.522;9.806;2022-12-10T08:11:25;21.73;;;9.80;;
4074;SDS011;2052;53.522;9.806;2022-12-10T08:13:53;21.40;;;9.70;;
4074;SDS011;2052;53.522;9.806;2022-12-10T08:16:20;22.33;;;10.20;;
4074;SDS011;2052;53.522;9.806;2022-12-10T08:18:50;20.00;;;10.23;;
4074;SDS011;2052;53.522;9.806;2022-12-10T08:21:17;17.90;;;8.97;;
4074;SDS011;2052;53.522;9.806;2022-12-10T08:23:46;17.77;;;9.00;;
4074;SDS011;2052;53.522;9.806;2022-12-10T08:26:14;20.77;;;10.87;;
4074;SDS011;2052;53.522;9.806;2022-12-10T08:28:42;21.03;;;9.47;;
4074;SDS011;2052;53.522;9.806;2022-12-10T08:31:09;19.17;;;8.70;;
4074;SDS011;2052;53.522;9.806;2022-12-10T08:33:37;19.73;;;10.57;;
4074;SDS011;2052;53.522;9.806;2022-12-10T08:36:05;17.30;;;7.97;;
4074;SDS011;2052;53.522;9.806;2022-12-10T08:38:33;22.70;;;10.00;;
4074;SDS011;2052;53.522;9.806;2022-12-10T08:41:06;13.77;;;8.13;;
4074;SDS011;2052;53.522;9.806;2022-12-10T08:43:33;16.70;;;8.70;;
4074;SDS011;2052;53.522;9.806;2022-12-10T08:46:00;18.17;;;8.40;;
4074;SDS011;2052;53.522;9.806;2022-12-10T08:48:27;14.20;;;8.30;;
4074;SDS011;2052;53.522;9.806;2022-12-10T08:50:53;16.07;;;7.40;;
4074;SDS011;2052;53.522;9.806;2022-12-10T08:53:20;15.03;;;8.20;;
4074;SDS011;2052;53.522;9.806;2022-12-10T08:55:48;17.93;;;9.47;;
4074;SDS011;2052;53.522;9.806;2022-12-10T08:58:17;18.93;;;10.07;;
4074;SDS011;2052;53.522;9.806;2022-12-10T09:00:44;17.83;;;9.33;;
4074;SDS011;2052;53.522;9.806;2022-12-10T09:03:10;17.20;;;9.97;;
4074;SDS011;2052;53.522;9.806;2022-12-10T09:05:37;20.33;;;8.90;;
4074;SDS011;2052;53.522;9.806;2022-12-10T09:08:04;19.77;;;10.20;;
4074;SDS011;2052;53.522;9.806;2022-12-10T09:10:30;24.97;;;10.10;;
4074;SDS011;2052;53.522;9.806;2022-12-10T09:12:57;20.60;;;10.67;;
4074;SDS011;2052;53.522;9.806;2022-12-10T09:15:25;18.93;;;10.20;;
4074;SDS011;2052;53.522;9.806;2022-12-10T09:17:51;19.63;;;11.07;;
4074;SDS011;2052;53.522;9.806;2022-12-10T09:20:18;24.47;;;11.53;;
4074;SDS011;2052;53.522;9.806;2022-12-10T09:22:44;25.47;;;14.07;;
4074;SDS011;2052;53.522;9.806;2022-12-10T09:25:11;24.13;;;12.37;;
4074;SDS011;2052;53.522;9.806;2022-12-10T09:27:40;22.50;;;11.60;;
4074;SDS011;2052;53.522;9.806;2022-12-10T09:30:07;21.97;;;11.50;;
4074;SDS011;2052;53.522;9.806;2022-12-10T09:32:36;18.90;;;9.10;;
4074;SDS011;2052;53.522;9.806;2022-12-10T09:35:03;20.70;;;10.10;;
4074;SDS011;2052;53.522;9.806;2022-12-10T09:37:30;25.20;;;11.27;;
4074;SDS011;2052;53.522;9.806;2022-12-10T09:39:57;24.13;;;11.03;;
4074;SDS011;2052;53.522;9.806;2022-12-10T09:42:27;18.50;;;9.83;;
4074;SDS011;2052;53.522;9.806;2022-12-10T09:45:02;21.80;;;10.50;;
4074;SDS011;2052;53.522;9.806;2022-12-10T09:47:33;16.97;;;9.30;;
4074;SDS011;2052;53.522;9.806;2022-12-10T09:50:06;15.40;;;9.23;;
4074;SDS011;2052;53.522;9.806;2022-12-10T09:52:39;22.77;;;10.80;;
4074;SDS011;2052;53.522;9.806;2022-12-10T09:55:09;17.90;;;9.30;;
4074;SDS011;2052;53.522;9.806;2022-12-10T09:57:38;17.93;;;9.37;;
4074;SDS011;2052;53.522;9.806;2022-12-10T10:00:11;16.60;;;9.23;;
4074;SDS011;2052;53.522;9.806;2022-12-10T10:02:45;17.40;;;8.63;;
4074;SDS011;2052;53.522;9.806;2022-12-10T10:05:13;16.63;;;8.00;;
4074;SDS011;2052;53.522;9.806;2022-12-10T10:07:44;15.40;;;8.70;;
4074;SDS011;2052;53.522;9.806;2022-12-10T10:10:16;14.27;;;8.20;;
4074;SDS011;2052;53.522;9.806;2022-12-10T10:12:47;17.37;;;8.40;;
4074;SDS011;2052;53.522;9.806;2022-12-10T10:15:18;13.70;;;8.40;;
4074;SDS011;2052;53.522;9.806;2022-12-10T10:17:53;20.10;;;10.20;;
4074;SDS011;2052;53.522;9.806;2022-12-10T10:20:21;17.17;;;8.60;;
4074;SDS011;2052;53.522;9.806;2022-12-10T10:22:47;15.53;;;7.90;;
4074;SDS011;2052;53.522;9.806;2022-12-10T10:25:14;21.20;;;10.00;;
4074;SDS011;2052;53.522;9.806;2022-12-10T10:27:42;16.13;;;9.70;;
4074;SDS011;2052;53.522;9.806;2022-12-10T10:30:12;17.07;;;9.60;;
4074;SDS011;2052;53.522;9.806;2022-12-10T10:32:46;17.63;;;9.93;;
4074;SDS011;2052;53.522;9.806;2022-12-10T10:35:27;18.60;;;9.87;;
4074;SDS011;2052;53.522;9.806;2022-12-10T10:37:59;17.87;;;9.20;;
4074;SDS011;2052;53.522;9.806;2022-12-10T10:40:28;16.30;;;8.00;;
4074;SDS011;2052;53.522;9.806;2022-12-10T10:42:57;13.40;;;7.57;;
4074;SDS011;2052;53.522;9.806;2022-12-10T10:45:31;13.47;;;8.63;;
4074;SDS011;2052;53.522;9.806;2022-12-10T10:48:04;15.87;;;8.30;;
4074;SDS011;2052;53.522;9.806;2022-12-10T10:50:37;19.80;;;10.40;;
4074;SDS011;2052;53.522;9.806;2022-12-10T10:53:25;18.70;;;10.47;;
4074;SDS011;2052;53.522;9.806;2022-12-10T10:55:55;16.20;;;9.40;;
4074;SDS011;2052;53.522;9.806;2022-12-10T10:58:23;22.37;;;11.03;;
4074;SDS011;2052;53.522;9.806;2022-12-10T11:00:54;17.83;;;9.80;;
4074;SDS011;2052;53.522;9.806;2022-12-10T11:03:21;19.50;;;10.60;;
4074;SDS011;2052;53.522;9.806;2022-12-10T11:05:49;22.77;;;10.10;;
4074;SDS011;2052;53.522;9.806;2022-12-10T11:08:17;20.73;;;10.60;;
4074;SDS011;2052;53.522;9.806;2022-12-10T11:10:49;336.70;;;46.83;;
4074;SDS011;2052;53.522;9.806;2022-12-10T11:13:22;14.63;;;8.40;;
4074;SDS011;2052;53.522;9.806;2022-12-10T11:15:54;14.60;;;8.40;;
4074;SDS011;2052;53.522;9.806;2022-12-10T11:18:23;14.43;;;7.97;;
4074;SDS011;2052;53.522;9.806;2022-12-10T11:23:43;16.20;;;8.60;;
4074;SDS011;2052;53.522;9.806;2022-12-10T11:26:16;14.73;;;8.03;;
4074;SDS011;2052;53.522;9.806;2022-12-10T11:28:51;14.33;;;7.87;;
4074;SDS011;2052;53.522;9.806;2022-12-10T11:31:29;14.63;;;8.67;;
4074;SDS011;2052;53.522;9.806;2022-12-10T11:34:05;15.47;;;8.57;;
4074;SDS011;2052;53.522;9.806;2022-12-10T11:36:38;15.10;;;7.90;;
4074;SDS011;2052;53.522;9.806;2022-12-10T11:39:12;16.60;;;8.23;;
4074;SDS011;2052;53.522;9.806;2022-12-10T11:41:49;16.07;;;7.57;;
4074;SDS011;2052;53.522;9.806;2022-12-10T11:44:22;15.60;;;7.80;;
4074;SDS011;2052;53.522;9.806;2022-12-10T11:49:53;17.17;;;8.03;;
4074;SDS011;2052;53.522;9.806;2022-12-10T11:52:29;15.43;;;8.67;;
4074;SDS011;2052;53.522;9.806;2022-12-10T11:55:07;14.60;;;7.93;;
4074;SDS011;2052;53.522;9.806;2022-12-10T11:57:41;15.07;;;8.13;;
4074;SDS011;2052;53.522;9.806;2022-12-10T12:00:16;14.37;;;8.00;;
4074;SDS011;2052;53.522;9.806;2022-12-10T12:02:51;11.80;;;7.67;;
4074;SDS011;2052;53.522;9.806;2022-12-10T12:05:31;19.30;;;8.77;;
4074;SDS011;2052;53.522;9.806;2022-12-10T12:08:09;14.73;;;7.80;;
4074;SDS011;2052;53.522;9.806;2022-12-10T12:13:40;14.67;;;7.57;;
4074;SDS011;2052;53.522;9.806;2022-12-10T12:16:12;15.57;;;9.00;;
4074;SDS011;2052;53.522;9.806;2022-12-10T12:18:42;16.87;;;8.13;;
4074;SDS011;2052;53.522;9.806;2022-12-10T12:21:12;18.30;;;9.50;;
4074;SDS011;2052;53.522;9.806;2022-12-10T12:23:44;15.17;;;8.30;;
4074;SDS011;2052;53.522;9.806;2022-12-10T12:26:14;18.60;;;9.87;;
4074;SDS011;2052;53.522;9.806;2022-12-10T12:28:43;19.27;;;8.90;;
4074;SDS011;2052;53.522;9.806;2022-12-10T12:31:13;20.23;;;9.93;;
4074;SDS011;2052;53.522;9.806;2022-12-10T12:33:43;17.60;;;9.37;;
4074;SDS011;2052;53.522;9.806;2022-12-10T12:36:14;18.00;;;9.20;;
4074;SDS011;2052;53.522;9.806;2022-12-10T12:38:45;18.57;;;10.10;;
4074;SDS011;2052;53.522;9.806;2022-12-10T12:41:16;20.43;;;9.70;;
4074;SDS011;2052;53.522;9.806;2022-12-10T12:43:51;14.13;;;8.30;;
4074;SDS011;2052;53.522;9.806;2022-12-10T12:46:25;17.23;;;10.47;;
4074;SDS011;2052;53.522;9.806;2022-12-10T12:49:02;15.33;;;9.10;;
4074;SDS011;2052;53.522;9.806;2022-12-10T12:51:38;19.87;;;10.10;;
4074;SDS011;2052;53.522;9.806;2022-12-10T12:54:08;16.10;;;9.30;;
4074;SDS011;2052;53.522;9.806;2022-12-10T12:56:41;14.30;;;8.90;;
4074;SDS011;2052;53.522;9.806;2022-12-10T12:59:22;15.10;;;8.10;;
4074;SDS011;2052;53.522;9.806;2022-12-10T13:01:58;14.10;;;7.80;;
4074;SDS011;2052;53.522;9.806;2022-12-10T13:04:29;15.73;;;9.20;;
4074;SDS011;2052;53.522;9.806;2022-12-10T13:07:08;15.50;;;7.40;;
4074;SDS011;2052;53.522;9.806;2022-12-10T13:09:44;18.13;;;8.80;;
4074;SDS011;2052;53.522;9.806;2022-12-10T13:12:24;12.03;;;7.50;;
4074;SDS011;2052;53.522;9.806;2022-12-10T13:14:56;17.17;;;8.03;;
4074;SDS011;2052;53.522;9.806;2022-12-10T13:17:30;17.60;;;10.43;;
4074;SDS011;2052;53.522;9.806;2022-12-10T13:23:00;21.87;;;11.80;;
4074;SDS011;2052;53.522;9.806;2022-12-10T13:25:40;27.50;;;13.73;;
4074;SDS011;2052;53.522;9.806;2022-12-10T13:28:21;18.63;;;10.30;;
4074;SDS011;2052;53.522;9.806;2022-12-10T13:33:49;19.43;;;10.90;;
4074;SDS011;2052;53.522;9.806;2022-12-10T13:36:21;18.13;;;8.33;;
4074;SDS011;2052;53.522;9.806;2022-12-10T13:38:58;19.90;;;9.63;;
4074;SDS011;2052;53.522;9.806;2022-12-10T13:41:40;24.57;;;13.43;;
4074;SDS011;2052;53.522;9.806;2022-12-10T13:44:35;30.30;;;11.10;;
4074;SDS011;2052;53.522;9.806;2022-12-10T13:47:21;22.00;;;11.00;;
4074;SDS011;2052;53.522;9.806;2022-12-10T13:49:52;15.13;;;9.13;;
4074;SDS011;2052;53.522;9.806;2022-12-10T13:52:23;22.43;;;10.13;;
4074;SDS011;2052;53.522;9.806;2022-12-10T13:54:58;22.00;;;9.90;;
4074;SDS011;2052;53.522;9.806;2022-12-10T13:57:41;17.60;;;8.63;;
4074;SDS011;2052;53.522;9.806;2022-12-10T14:00:31;20.20;;;9.53;;
4074;SDS011;2052;53.522;9.806;2022-12-10T14:06:04;18.20;;;8.70;;
4074;SDS011;2052;53.522;9.806;2022-12-10T14:08:38;17.40;;;8.77;;
4074;SDS011;2052;53.522;9.806;2022-12-10T14:11:08;22.17;;;8.93;;
4074;SDS011;2052;53.522;9.806;2022-12-10T14:13:40;18.63;;;10.40;;
4074;SDS011;2052;53.522;9.806;2022-12-10T14:16:10;18.90;;;8.93;;
4074;SDS011;2052;53.522;9.806;2022-12-10T14:18:38;21.07;;;8.67;;
4074;SDS011;2052;53.522;9.806;2022-12-10T14:21:07;17.80;;;9.70;;
4074;SDS011;2052;53.522;9.806;2022-12-10T14:23:34;20.87;;;10.30;;
4074;SDS011;2052;53.522;9.806;2022-12-10T14:26:06;18.67;;;8.30;;
4074;SDS011;2052;53.522;9.806;2022-12-10T14:28:37;20.10;;;9.10;;
4074;SDS011;2052;53.522;9.806;2022-12-10T14:31:07;19.30;;;9.13;;
4074;SDS011;2052;53.522;9.806;2022-12-10T14:33:38;15.60;;;9.87;;
4074;SDS011;2052;53.522;9.806;2022-12-10T14:36:05;18.73;;;9.27;;
4074;SDS011;2052;53.522;9.806;2022-12-10T14:38:33;21.67;;;8.77;;
4074;SDS011;2052;53.522;9.806;2022-12-10T14:40:59;16.70;;;9.60;;
4074;SDS011;2052;53.522;9.806;2022-12-10T14:43:29;23.90;;;10.63;;
4074;SDS011;2052;53.522;9.806;2022-12-10T14:45:59;22.27;;;10.80;;
4074;SDS011;2052;53.522;9.806;2022-12-10T14:48:28;20.57;;;10.33;;
4074;SDS011;2052;53.522;9.806;2022-12-10T14:50:55;28.37;;;11.67;;
4074;SDS011;2052;53.522;9.806;2022-12-10T14:53:24;22.67;;;10.87;;
4074;SDS011;2052;53.522;9.806;2022-12-10T14:55:52;19.20;;;10.50;;
4074;SDS011;2052;53.522;9.806;2022-12-10T14:58:27;21.37;;;10.37;;
4074;SDS011;2052;53.522;9.806;2022-12-10T15:00:56;19.10;;;9.63;;
4074;SDS011;2052;53.522;9.806;2022-12-10T15:03:24;25.17;;;10.60;;
4074;SDS011;2052;53.522;9.806;2022-12-10T15:05:55;26.40;;;11.53;;
4074;SDS011;2052;53.522;9.806;2022-12-10T15:08:22;22.30;;;9.93;;
4074;SDS011;2052;53.522;9.806;2022-12-10T15:10:50;19.70;;;10.30;;
4074;SDS011;2052;53.522;9.806;2022-12-10T15:13:21;22.03;;;10.07;;
4074;SDS011;2052;53.522;9.806;2022-12-10T15:15:49;24.63;;;10.50;;
4074;SDS011;2052;53.522;9.806;2022-12-10T15:18:18;22.37;;;11.67;;
4074;SDS011;2052;53.522;9.806;2022-12-10T15:20:48;26.73;;;11.13;;
4074;SDS011;2052;53.522;9.806;2022-12-10T15:23:17;22.67;;;11.50;;
4074;SDS011;2052;53.522;9.806;2022-12-10T15:25:46;25.97;;;12.37;;